createdAt,value
2022-09-17T00:00:08.619Z,99323.00
2022-09-17T00:00:20.829Z,99320.00
2022-09-17T00:00:31.668Z,99321.00
2022-09-17T00:00:42.518Z,99322.00
2022-09-17T00:00:54.359Z,99320.00
2022-09-17T00:01:07.377Z,99317.00
2022-09-17T00:01:20.666Z,99315.00
2022-09-17T00:01:32.952Z,99317.00
2022-09-17T00:01:44.836Z,99317.00
2022-09-17T00:01:55.697Z,99324.00
2022-09-17T00:02:06.498Z,99320.00
2022-09-17T00:02:18.409Z,99319.00
2022-09-17T00:02:30.206Z,99315.00
2022-09-17T00:02:41.036Z,99322.00
2022-09-17T00:02:52.839Z,99320.00
2022-09-17T00:03:03.752Z,99324.00
2022-09-17T00:03:16.973Z,99321.00
2022-09-17T00:03:27.750Z,99321.00
2022-09-17T00:03:38.508Z,99317.00
2022-09-17T00:03:51.209Z,99323.00
2022-09-17T00:04:03.649Z,99322.00
2022-09-17T00:04:16.108Z,99327.00
2022-09-17T00:04:26.878Z,99327.00
2022-09-17T00:04:39.130Z,99323.00
2022-09-17T00:04:50.885Z,99324.00
2022-09-17T00:05:02.590Z,99326.00
2022-09-17T00:05:13.360Z,99331.00
2022-09-17T00:05:25.571Z,99325.00
2022-09-17T00:05:36.338Z,99327.00
2022-09-17T00:05:47.130Z,99325.00
2022-09-17T00:05:58.820Z,99327.00
2022-09-17T00:06:10.561Z,99325.00
2022-09-17T00:06:21.310Z,99321.00
2022-09-17T00:06:33.040Z,99327.00
2022-09-17T00:06:44.820Z,99320.00
2022-09-17T00:06:55.692Z,99322.00
2022-09-17T00:07:07.424Z,99326.00
2022-09-17T00:07:18.230Z,99321.00
2022-09-17T00:07:28.979Z,99326.00
2022-09-17T00:07:40.731Z,99323.00
2022-09-17T00:07:51.542Z,99325.00
2022-09-17T00:08:03.321Z,99324.00
2022-09-17T00:08:14.091Z,99323.00
2022-09-17T00:08:25.841Z,99318.00
2022-09-17T00:08:38.311Z,99322.00
2022-09-17T00:08:50.051Z,99323.00
2022-09-17T00:09:02.504Z,99322.00
2022-09-17T00:09:13.293Z,99325.00
2022-09-17T00:09:24.111Z,99327.00
2022-09-17T00:09:34.890Z,99329.00
2022-09-17T00:09:46.642Z,99322.00
2022-09-17T00:09:57.470Z,99323.00
2022-09-17T00:10:08.222Z,99325.00
2022-09-17T00:10:19.902Z,99328.00
2022-09-17T00:10:31.602Z,99324.00
2022-09-17T00:10:42.362Z,99322.00
2022-09-17T00:10:53.141Z,99323.00
2022-09-17T00:11:04.894Z,99327.00
2022-09-17T00:11:15.703Z,99324.00
2022-09-17T00:11:26.525Z,99323.00
2022-09-17T00:11:39.055Z,99323.00
2022-09-17T00:11:49.852Z,99324.00
2022-09-17T00:12:01.592Z,99321.00
2022-09-17T00:12:12.362Z,99324.00
2022-09-17T00:12:23.123Z,99324.00
2022-09-17T00:12:33.911Z,99324.00
2022-09-17T00:12:44.662Z,99321.00
2022-09-17T00:12:55.433Z,99319.00
2022-09-17T00:13:06.241Z,99320.00
2022-09-17T00:13:17.975Z,99326.00
2022-09-17T00:13:29.723Z,99321.00
2022-09-17T00:13:40.474Z,99320.00
2022-09-17T00:13:52.375Z,99321.00
2022-09-17T00:14:04.196Z,99321.00
2022-09-17T00:14:14.954Z,99321.00
2022-09-17T00:14:25.723Z,99317.00
2022-09-17T00:14:36.544Z,99316.00
2022-09-17T00:14:47.324Z,99318.00
2022-09-17T00:14:58.111Z,99320.00
2022-09-17T00:15:09.843Z,99320.00
2022-09-17T00:15:20.646Z,99323.00
2022-09-17T00:15:31.421Z,99320.00
2022-09-17T00:15:42.356Z,99320.00
2022-09-17T00:15:53.238Z,99321.00
2022-09-17T00:16:04.078Z,99322.00
2022-09-17T00:16:14.927Z,99321.00
2022-09-17T00:16:25.878Z,99322.00
2022-09-17T00:16:36.649Z,99318.00
2022-09-17T00:16:47.395Z,99321.00
2022-09-17T00:17:01.775Z,99318.00
2022-09-17T00:17:12.805Z,99321.00
2022-09-17T00:17:23.564Z,99321.00
2022-09-17T00:17:35.287Z,99318.00
2022-09-17T00:17:46.084Z,99322.00
2022-09-17T00:17:56.875Z,99321.00
2022-09-17T00:18:07.694Z,99321.00
2022-09-17T00:18:18.468Z,99320.00
2022-09-17T00:18:29.229Z,99318.00
2022-09-17T00:18:39.976Z,99320.00
2022-09-17T00:18:51.722Z,99323.00
2022-09-17T00:19:03.414Z,99320.00
2022-09-17T00:19:14.175Z,99324.00
2022-09-17T00:19:24.914Z,99322.00
2022-09-17T00:19:36.645Z,99323.00
2022-09-17T00:19:47.385Z,99324.00
2022-09-17T00:19:58.195Z,99320.00
2022-09-17T00:20:09.906Z,99322.00
2022-09-17T00:20:20.677Z,99326.00
2022-09-17T00:20:31.406Z,99322.00
2022-09-17T00:20:42.164Z,99322.00
2022-09-17T00:20:52.935Z,99325.00
2022-09-17T00:21:04.663Z,99324.00
2022-09-17T00:21:15.467Z,99321.00
2022-09-17T00:21:26.265Z,99328.00
2022-09-17T00:21:37.094Z,99323.00
2022-09-17T00:21:47.955Z,99326.00
2022-09-17T00:21:58.774Z,99324.00
2022-09-17T00:22:10.985Z,99323.00
2022-09-17T00:22:22.956Z,99326.00
2022-09-17T00:22:33.701Z,99327.00
2022-09-17T00:22:45.437Z,99328.00
2022-09-17T00:22:56.166Z,99328.00
2022-09-17T00:23:06.906Z,99325.00
2022-09-17T00:23:17.685Z,99325.00
2022-09-17T00:23:28.428Z,99323.00
2022-09-17T00:23:39.237Z,99321.00
2022-09-17T00:23:50.086Z,99326.00
2022-09-17T00:24:02.348Z,99321.00
2022-09-17T00:24:13.106Z,99324.00
2022-09-17T00:24:23.856Z,99324.00
2022-09-17T00:24:34.607Z,99319.00
2022-09-17T00:24:45.347Z,99323.00
2022-09-17T00:24:56.085Z,99324.00
2022-09-17T00:25:06.829Z,99319.00
2022-09-17T00:25:20.039Z,99321.00
2022-09-17T00:25:32.487Z,99320.00
2022-09-17T00:25:44.178Z,99323.00
2022-09-17T00:25:54.919Z,99322.00
2022-09-17T00:26:06.647Z,99326.00
2022-09-17T00:26:18.428Z,99321.00
2022-09-17T00:26:29.186Z,99317.00
2022-09-17T00:26:41.461Z,99316.00
2022-09-17T00:26:52.227Z,99320.00
2022-09-17T00:27:02.989Z,99324.00
2022-09-17T00:27:13.778Z,99321.00
2022-09-17T00:27:24.557Z,99318.00
2022-09-17T00:27:37.039Z,99320.00
2022-09-17T00:27:48.758Z,99320.00
2022-09-17T00:28:00.488Z,99321.00
2022-09-17T00:28:13.218Z,99323.00
2022-09-17T00:28:23.958Z,99322.00
2022-09-17T00:28:35.707Z,99319.00
2022-09-17T00:28:46.478Z,99323.00
2022-09-17T00:28:58.707Z,99328.00
2022-09-17T00:29:09.488Z,99328.00
2022-09-17T00:29:21.191Z,99322.00
2022-09-17T00:29:32.919Z,99323.00
2022-09-17T00:29:44.629Z,99324.00
2022-09-17T00:29:56.319Z,99323.00
2022-09-17T00:30:07.088Z,99324.00
2022-09-17T00:30:19.059Z,99322.00
2022-09-17T00:30:32.041Z,99321.00
2022-09-17T00:30:42.778Z,99322.00
2022-09-17T00:30:53.623Z,99324.00
2022-09-17T00:31:05.394Z,99322.00
2022-09-17T00:31:17.884Z,99324.00
2022-09-17T00:31:28.663Z,99326.00
2022-09-17T00:31:41.513Z,99331.00
2022-09-17T00:31:52.268Z,99326.00
2022-09-17T00:32:04.220Z,99325.00
2022-09-17T00:32:16.476Z,99329.00
2022-09-17T00:32:27.240Z,99323.00
2022-09-17T00:32:39.759Z,99321.00
2022-09-17T00:32:51.531Z,99327.00
2022-09-17T00:33:03.971Z,99320.00
2022-09-17T00:33:14.710Z,99323.00
2022-09-17T00:33:25.454Z,99326.00
2022-09-17T00:33:36.200Z,99324.00
2022-09-17T00:33:46.971Z,99323.00
2022-09-17T00:33:58.701Z,99322.00
2022-09-17T00:34:09.480Z,99324.00
2022-09-17T00:34:20.271Z,99323.00
2022-09-17T00:34:32.710Z,99322.00
2022-09-17T00:34:44.471Z,99321.00
2022-09-17T00:34:55.221Z,99325.00
2022-09-17T00:35:05.972Z,99326.00
2022-09-17T00:35:16.720Z,99323.00
2022-09-17T00:35:27.480Z,99325.00
2022-09-17T00:35:39.180Z,99329.00
2022-09-17T00:35:49.929Z,99327.00
2022-09-17T00:36:01.650Z,99324.00
2022-09-17T00:36:13.390Z,99324.00
2022-09-17T00:36:24.160Z,99323.00
2022-09-17T00:36:36.370Z,99323.00
2022-09-17T00:36:47.181Z,99322.00
2022-09-17T00:36:57.949Z,99323.00
2022-09-17T00:37:11.151Z,99330.00
2022-09-17T00:37:22.922Z,99325.00
2022-09-17T00:37:35.124Z,99331.00
2022-09-17T00:37:45.920Z,99328.00
2022-09-17T00:37:57.650Z,99324.00
2022-09-17T00:38:10.083Z,99323.00
2022-09-17T00:38:20.901Z,99330.00
2022-09-17T00:38:31.661Z,99328.00
2022-09-17T00:38:42.461Z,99327.00
2022-09-17T00:38:54.232Z,99325.00
2022-09-17T00:39:05.983Z,99334.00
2022-09-17T00:39:16.752Z,99327.00
2022-09-17T00:39:27.509Z,99330.00
2022-09-17T00:39:38.270Z,99335.00
2022-09-17T00:39:49.083Z,99329.00
2022-09-17T00:40:00.841Z,99329.00
2022-09-17T00:40:11.654Z,99326.00
2022-09-17T00:40:24.138Z,99325.00
2022-09-17T00:40:35.978Z,99325.00
2022-09-17T00:40:46.783Z,99322.00
2022-09-17T00:40:57.562Z,99323.00
2022-09-17T00:41:09.317Z,99327.00
2022-09-17T00:41:20.123Z,99330.00
2022-09-17T00:41:31.882Z,99328.00
2022-09-17T00:41:42.642Z,99326.00
2022-09-17T00:41:54.380Z,99328.00
2022-09-17T00:42:05.162Z,99330.00
2022-09-17T00:42:15.933Z,99331.00
2022-09-17T00:42:26.693Z,99332.00
2022-09-17T00:42:37.464Z,99335.00
2022-09-17T00:42:48.293Z,99332.00
2022-09-17T00:42:59.141Z,99328.00
2022-09-17T00:43:09.943Z,99333.00
2022-09-17T00:43:20.734Z,99330.00
2022-09-17T00:43:31.545Z,99331.00
2022-09-17T00:43:42.314Z,99331.00
2022-09-17T00:43:54.023Z,99337.00
2022-09-17T00:44:04.751Z,99336.00
2022-09-17T00:44:16.486Z,99331.00
2022-09-17T00:44:27.256Z,99333.00
2022-09-17T00:44:38.043Z,99331.00
2022-09-17T00:44:48.833Z,99330.00
2022-09-17T00:44:59.594Z,99332.00
2022-09-17T00:45:10.353Z,99339.00
2022-09-17T00:45:21.116Z,99333.00
2022-09-17T00:45:31.898Z,99339.00
2022-09-17T00:45:42.634Z,99330.00
2022-09-17T00:45:53.403Z,99333.00
2022-09-17T00:46:04.177Z,99338.00
2022-09-17T00:46:15.900Z,99338.00
2022-09-17T00:46:26.754Z,99340.00
2022-09-17T00:46:38.544Z,99341.00
2022-09-17T00:46:49.483Z,99338.00
2022-09-17T00:47:00.274Z,99338.00
2022-09-17T00:47:12.714Z,99342.00
2022-09-17T00:47:23.485Z,99341.00
2022-09-17T00:47:35.944Z,99344.00
2022-09-17T00:47:46.713Z,99339.00
2022-09-17T00:47:59.205Z,99337.00
2022-09-17T00:48:09.984Z,99337.00
2022-09-17T00:48:20.727Z,99335.00
2022-09-17T00:48:31.505Z,99340.00
2022-09-17T00:48:43.976Z,99341.00
2022-09-17T00:48:56.455Z,99336.00
2022-09-17T00:49:07.234Z,99339.00
2022-09-17T00:49:18.944Z,99337.00
2022-09-17T00:49:30.680Z,99337.00
2022-09-17T00:49:43.465Z,99339.00
2022-09-17T00:49:55.166Z,99342.00
2022-09-17T00:50:06.915Z,99342.00
2022-09-17T00:50:18.696Z,99341.00
2022-09-17T00:50:30.416Z,99341.00
2022-09-17T00:50:41.206Z,99338.00
2022-09-17T00:50:52.956Z,99341.00
2022-09-17T00:51:03.709Z,99341.00
2022-09-17T00:51:16.166Z,99340.00
2022-09-17T00:51:28.615Z,99339.00
2022-09-17T00:51:39.419Z,99339.00
2022-09-17T00:51:50.217Z,99337.00
2022-09-17T00:52:00.976Z,99341.00
2022-09-17T00:52:13.420Z,99340.00
2022-09-17T00:52:25.176Z,99338.00
2022-09-17T00:52:36.920Z,99337.00
2022-09-17T00:52:48.627Z,99337.00
2022-09-17T00:53:00.367Z,99344.00
2022-09-17T00:53:12.136Z,99335.00
2022-09-17T00:53:25.101Z,99341.00
2022-09-17T00:53:35.949Z,99338.00
2022-09-17T00:53:47.749Z,99335.00
2022-09-17T00:54:00.488Z,99337.00
2022-09-17T00:54:11.274Z,99333.00
2022-09-17T00:54:22.967Z,99334.00
2022-09-17T00:54:34.689Z,99337.00
2022-09-17T00:54:45.446Z,99338.00
2022-09-17T00:54:56.216Z,99337.00
2022-09-17T00:55:06.976Z,99341.00
2022-09-17T00:55:17.770Z,99338.00
2022-09-17T00:55:28.516Z,99339.00
2022-09-17T00:55:39.308Z,99332.00
2022-09-17T00:55:50.055Z,99335.00
2022-09-17T00:56:01.787Z,99338.00
2022-09-17T00:56:14.028Z,99340.00
2022-09-17T00:56:25.792Z,99338.00
2022-09-17T00:56:37.499Z,99337.00
2022-09-17T00:56:49.447Z,99339.00
2022-09-17T00:57:01.168Z,99336.00
2022-09-17T00:57:12.908Z,99334.00
2022-09-17T00:57:23.748Z,99332.00
2022-09-17T00:57:34.548Z,99339.00
2022-09-17T00:57:45.318Z,99336.00
2022-09-17T00:57:57.728Z,99336.00
2022-09-17T00:58:09.938Z,99339.00
2022-09-17T00:58:20.739Z,99333.00
2022-09-17T00:58:31.500Z,99337.00
2022-09-17T00:58:43.198Z,99340.00
2022-09-17T00:58:53.978Z,99327.00
2022-09-17T00:59:05.709Z,99340.00
2022-09-17T00:59:17.927Z,99341.00
2022-09-17T00:59:30.409Z,99343.00
2022-09-17T00:59:42.139Z,99340.00
2022-09-17T00:59:55.359Z,99340.00
2022-09-17T01:00:06.112Z,99340.00
2022-09-17T01:00:17.859Z,99339.00
2022-09-17T01:00:29.918Z,99343.00
2022-09-17T01:00:40.693Z,99341.00
2022-09-17T01:00:51.462Z,99343.00
2022-09-17T01:01:03.969Z,99343.00
2022-09-17T01:01:15.728Z,99340.00
2022-09-17T01:01:27.961Z,99337.00
2022-09-17T01:01:40.260Z,99340.00
2022-09-17T01:01:51.128Z,99341.00
2022-09-17T01:02:01.930Z,99343.00
2022-09-17T01:02:13.721Z,99339.00
2022-09-17T01:02:25.495Z,99343.00
2022-09-17T01:02:37.261Z,99339.00
2022-09-17T01:02:49.025Z,99336.00
2022-09-17T01:03:00.760Z,99339.00
2022-09-17T01:03:12.500Z,99342.00
2022-09-17T01:03:23.280Z,99338.00
2022-09-17T01:03:34.050Z,99337.00
2022-09-17T01:03:44.872Z,99337.00
2022-09-17T01:03:56.591Z,99339.00
2022-09-17T01:04:07.371Z,99341.00
2022-09-17T01:04:18.171Z,99342.00
2022-09-17T01:04:28.946Z,99339.00
2022-09-17T01:04:40.658Z,99339.00
2022-09-17T01:04:51.444Z,99347.00
2022-09-17T01:05:03.911Z,99346.00
2022-09-17T01:05:17.630Z,99341.00
2022-09-17T01:05:28.421Z,99344.00
2022-09-17T01:05:40.380Z,99344.00
2022-09-17T01:05:51.159Z,99348.00
2022-09-17T01:06:03.412Z,99347.00
2022-09-17T01:06:14.183Z,99350.00
2022-09-17T01:06:25.891Z,99346.00
2022-09-17T01:06:37.861Z,99344.00
2022-09-17T01:06:49.597Z,99343.00
2022-09-17T01:07:00.372Z,99344.00
2022-09-17T01:07:11.143Z,99347.00
2022-09-17T01:07:21.909Z,99342.00
2022-09-17T01:07:32.722Z,99342.00
2022-09-17T01:07:43.490Z,99346.00
2022-09-17T01:07:54.391Z,99348.00
2022-09-17T01:08:05.162Z,99346.00
2022-09-17T01:08:17.602Z,99343.00
2022-09-17T01:08:28.370Z,99347.00
2022-09-17T01:08:40.083Z,99344.00
2022-09-17T01:08:51.792Z,99345.00
2022-09-17T01:09:02.522Z,99346.00
2022-09-17T01:09:13.294Z,99346.00
2022-09-17T01:09:24.035Z,99346.00
2022-09-17T01:09:36.312Z,99350.00
2022-09-17T01:09:49.297Z,99345.00
2022-09-17T01:10:02.502Z,99346.00
2022-09-17T01:10:14.763Z,99348.00
2022-09-17T01:10:26.513Z,99349.00
2022-09-17T01:10:38.796Z,99348.00
2022-09-17T01:10:49.577Z,99349.00
2022-09-17T01:11:02.266Z,99353.00
2022-09-17T01:11:13.572Z,99347.00
2022-09-17T01:11:25.315Z,99349.00
2022-09-17T01:11:37.047Z,99346.00
2022-09-17T01:11:48.743Z,99347.00
2022-09-17T01:12:00.494Z,99347.00
2022-09-17T01:12:12.244Z,99351.00
2022-09-17T01:12:22.993Z,99345.00
2022-09-17T01:12:33.772Z,99348.00
2022-09-17T01:12:45.483Z,99354.00
2022-09-17T01:12:56.244Z,99348.00
2022-09-17T01:13:07.024Z,99347.00
2022-09-17T01:13:18.733Z,99348.00
2022-09-17T01:13:29.503Z,99348.00
2022-09-17T01:13:41.932Z,99352.00
2022-09-17T01:13:52.695Z,99352.00
2022-09-17T01:14:04.444Z,99357.00
2022-09-17T01:14:15.193Z,99352.00
2022-09-17T01:14:26.894Z,99352.00
2022-09-17T01:14:39.425Z,99353.00
2022-09-17T01:14:52.145Z,99353.00
2022-09-17T01:15:03.854Z,99350.00
2022-09-17T01:15:15.564Z,99352.00
2022-09-17T01:15:26.353Z,99347.00
2022-09-17T01:15:37.094Z,99346.00
2022-09-17T01:15:48.894Z,99350.00
2022-09-17T01:15:59.753Z,99352.00
2022-09-17T01:16:11.613Z,99349.00
2022-09-17T01:16:22.382Z,99352.00
2022-09-17T01:16:34.610Z,99355.00
2022-09-17T01:16:46.297Z,99357.00
2022-09-17T01:16:58.035Z,99346.00
2022-09-17T01:17:11.176Z,99351.00
2022-09-17T01:17:22.905Z,99351.00
2022-09-17T01:17:34.657Z,99353.00
2022-09-17T01:17:45.435Z,99347.00
2022-09-17T01:17:57.696Z,99346.00
2022-09-17T01:18:10.665Z,99352.00
2022-09-17T01:18:22.360Z,99347.00
2022-09-17T01:18:34.146Z,99346.00
2022-09-17T01:18:46.416Z,99348.00
2022-09-17T01:18:57.163Z,99353.00
2022-09-17T01:19:07.905Z,99348.00
2022-09-17T01:19:18.668Z,99349.00
2022-09-17T01:19:29.394Z,99346.00
2022-09-17T01:19:40.135Z,99349.00
2022-09-17T01:19:52.585Z,99346.00
2022-09-17T01:20:03.338Z,99343.00
2022-09-17T01:20:15.817Z,99345.00
2022-09-17T01:20:28.270Z,99350.00
2022-09-17T01:20:40.526Z,99349.00
2022-09-17T01:20:52.245Z,99346.00
2022-09-17T01:21:03.999Z,99345.00
2022-09-17T01:21:15.716Z,99349.00
2022-09-17T01:21:27.467Z,99352.00
2022-09-17T01:21:39.196Z,99348.00
2022-09-17T01:21:49.975Z,99348.00
2022-09-17T01:22:00.767Z,99354.00
2022-09-17T01:22:12.488Z,99347.00
2022-09-17T01:22:24.227Z,99352.00
2022-09-17T01:22:34.988Z,99349.00
2022-09-17T01:22:46.742Z,99348.00
2022-09-17T01:22:57.496Z,99350.00
2022-09-17T01:23:08.290Z,99350.00
2022-09-17T01:23:19.047Z,99350.00
2022-09-17T01:23:29.825Z,99356.00
2022-09-17T01:23:41.588Z,99350.00
2022-09-17T01:23:52.347Z,99352.00
2022-09-17T01:24:03.119Z,99351.00
2022-09-17T01:24:14.818Z,99348.00
2022-09-17T01:24:26.528Z,99351.00
2022-09-17T01:24:37.291Z,99358.00
2022-09-17T01:24:49.011Z,99351.00
2022-09-17T01:24:59.768Z,99351.00
2022-09-17T01:25:12.197Z,99353.00
2022-09-17T01:25:22.968Z,99351.00
2022-09-17T01:25:34.688Z,99351.00
2022-09-17T01:25:46.448Z,99352.00
2022-09-17T01:25:57.222Z,99355.00
2022-09-17T01:26:08.968Z,99352.00
2022-09-17T01:26:20.738Z,99352.00
2022-09-17T01:26:31.509Z,99354.00
2022-09-17T01:26:43.968Z,99352.00
2022-09-17T01:26:55.690Z,99350.00
2022-09-17T01:27:07.918Z,99352.00
2022-09-17T01:27:19.668Z,99355.00
2022-09-17T01:27:31.400Z,99353.00
2022-09-17T01:27:45.624Z,99350.00
2022-09-17T01:27:58.114Z,99349.00
2022-09-17T01:28:10.598Z,99353.00
2022-09-17T01:28:21.349Z,99355.00
2022-09-17T01:28:33.059Z,99355.00
2022-09-17T01:28:44.769Z,99351.00
2022-09-17T01:28:55.579Z,99354.00
2022-09-17T01:29:06.489Z,99353.00
2022-09-17T01:29:17.279Z,99354.00
2022-09-17T01:29:28.029Z,99355.00
2022-09-17T01:29:38.799Z,99356.00
2022-09-17T01:29:49.560Z,99353.00
2022-09-17T01:30:00.315Z,99354.00
2022-09-17T01:30:12.519Z,99358.00
2022-09-17T01:30:23.287Z,99354.00
2022-09-17T01:30:35.009Z,99356.00
2022-09-17T01:30:46.749Z,99355.00
2022-09-17T01:30:58.553Z,99358.00
2022-09-17T01:31:09.460Z,99356.00
2022-09-17T01:31:21.990Z,99358.00
2022-09-17T01:31:33.818Z,99358.00
2022-09-17T01:31:46.278Z,99352.00
2022-09-17T01:31:57.052Z,99356.00
2022-09-17T01:32:07.873Z,99356.00
2022-09-17T01:32:18.650Z,99352.00
2022-09-17T01:32:30.371Z,99354.00
2022-09-17T01:32:42.090Z,99358.00
2022-09-17T01:32:53.810Z,99356.00
2022-09-17T01:33:05.552Z,99360.00
2022-09-17T01:33:16.311Z,99358.00
2022-09-17T01:33:27.081Z,99356.00
2022-09-17T01:33:37.841Z,99359.00
2022-09-17T01:33:49.620Z,99353.00
2022-09-17T01:34:00.400Z,99357.00
2022-09-17T01:34:12.113Z,99360.00
2022-09-17T01:34:24.344Z,99360.00
2022-09-17T01:34:35.100Z,99353.00
2022-09-17T01:34:45.900Z,99360.00
2022-09-17T01:34:56.661Z,99355.00
2022-09-17T01:35:08.371Z,99357.00
2022-09-17T01:35:19.172Z,99356.00
2022-09-17T01:35:29.981Z,99356.00
2022-09-17T01:35:40.770Z,99358.00
2022-09-17T01:35:51.562Z,99357.00
2022-09-17T01:36:03.802Z,99353.00
2022-09-17T01:36:16.290Z,99357.00
2022-09-17T01:36:27.054Z,99358.00
2022-09-17T01:36:37.869Z,99358.00
2022-09-17T01:36:48.622Z,99359.00
2022-09-17T01:37:00.311Z,99361.00
2022-09-17T01:37:11.072Z,99358.00
2022-09-17T01:37:25.856Z,99360.00
2022-09-17T01:37:38.743Z,99357.00
2022-09-17T01:37:50.144Z,99361.00
2022-09-17T01:38:01.141Z,99360.00
2022-09-17T01:38:11.952Z,99360.00
2022-09-17T01:38:22.723Z,99363.00
2022-09-17T01:38:33.472Z,99359.00
2022-09-17T01:38:44.243Z,99359.00
2022-09-17T01:38:56.972Z,99363.00
2022-09-17T01:39:07.723Z,99360.00
2022-09-17T01:39:18.492Z,99365.00
2022-09-17T01:39:30.252Z,99355.00
2022-09-17T01:39:41.173Z,99362.00
2022-09-17T01:39:52.968Z,99361.00
2022-09-17T01:40:03.764Z,99362.00
2022-09-17T01:40:14.549Z,99361.00
2022-09-17T01:40:27.057Z,99361.00
2022-09-17T01:40:37.780Z,99361.00
2022-09-17T01:40:48.553Z,99365.00
2022-09-17T01:41:01.512Z,99364.00
2022-09-17T01:41:12.325Z,99360.00
2022-09-17T01:41:23.102Z,99366.00
2022-09-17T01:41:35.343Z,99372.00
2022-09-17T01:41:46.163Z,99366.00
2022-09-17T01:41:56.903Z,99364.00
2022-09-17T01:42:08.644Z,99363.00
2022-09-17T01:42:20.603Z,99359.00
2022-09-17T01:42:32.334Z,99366.00
2022-09-17T01:42:43.133Z,99366.00
2022-09-17T01:42:53.907Z,99362.00
2022-09-17T01:43:06.385Z,99358.00
2022-09-17T01:43:18.158Z,99366.00
2022-09-17T01:43:28.914Z,99366.00
2022-09-17T01:43:41.386Z,99367.00
2022-09-17T01:43:52.172Z,99364.00
2022-09-17T01:44:03.865Z,99365.00
2022-09-17T01:44:15.615Z,99366.00
2022-09-17T01:44:27.345Z,99366.00
2022-09-17T01:44:38.123Z,99367.00
2022-09-17T01:44:50.601Z,99364.00
2022-09-17T01:45:01.407Z,99366.00
2022-09-17T01:45:12.171Z,99364.00
2022-09-17T01:45:22.924Z,99367.00
2022-09-17T01:45:34.635Z,99365.00
2022-09-17T01:45:45.394Z,99368.00
2022-09-17T01:45:56.145Z,99369.00
2022-09-17T01:46:09.139Z,99366.00
2022-09-17T01:46:21.351Z,99367.00
2022-09-17T01:46:32.148Z,99366.00
2022-09-17T01:46:42.947Z,99365.00
2022-09-17T01:46:53.718Z,99369.00
2022-09-17T01:47:05.455Z,99364.00
2022-09-17T01:47:20.745Z,99363.00
2022-09-17T01:47:32.798Z,99367.00
2022-09-17T01:47:44.518Z,99369.00
2022-09-17T01:47:56.230Z,99364.00
2022-09-17T01:48:08.457Z,99366.00
2022-09-17T01:48:20.493Z,99371.00
2022-09-17T01:48:32.219Z,99372.00
2022-09-17T01:48:42.990Z,99372.00
2022-09-17T01:48:54.926Z,99364.00
2022-09-17T01:49:05.714Z,99366.00
2022-09-17T01:49:16.533Z,99366.00
2022-09-17T01:49:28.266Z,99374.00
2022-09-17T01:49:39.986Z,99367.00
2022-09-17T01:49:52.417Z,99372.00
2022-09-17T01:50:03.176Z,99369.00
2022-09-17T01:50:14.106Z,99370.00
2022-09-17T01:50:24.866Z,99368.00
2022-09-17T01:50:35.626Z,99368.00
2022-09-17T01:50:47.347Z,99371.00
2022-09-17T01:50:59.090Z,99369.00
2022-09-17T01:51:11.307Z,99371.00
2022-09-17T01:51:22.075Z,99368.00
2022-09-17T01:51:32.818Z,99368.00
2022-09-17T01:51:45.035Z,99371.00
2022-09-17T01:51:55.788Z,99368.00
2022-09-17T01:52:06.620Z,99370.00
2022-09-17T01:52:18.388Z,99371.00
2022-09-17T01:52:30.347Z,99372.00
2022-09-17T01:52:41.157Z,99370.00
2022-09-17T01:52:51.929Z,99365.00
2022-09-17T01:53:02.983Z,99369.00
2022-09-17T01:53:15.430Z,99366.00
2022-09-17T01:53:26.226Z,99367.00
2022-09-17T01:53:37.947Z,99369.00
2022-09-17T01:53:49.677Z,99367.00
2022-09-17T01:54:01.882Z,99368.00
2022-09-17T01:54:13.600Z,99367.00
2022-09-17T01:54:24.349Z,99370.00
2022-09-17T01:54:38.072Z,99372.00
2022-09-17T01:54:50.707Z,99369.00
2022-09-17T01:55:02.371Z,99365.00
2022-09-17T01:55:14.148Z,99367.00
2022-09-17T01:55:26.598Z,99367.00
2022-09-17T01:55:39.011Z,99369.00
2022-09-17T01:55:50.728Z,99371.00
2022-09-17T01:56:01.508Z,99368.00
2022-09-17T01:56:12.269Z,99368.00
2022-09-17T01:56:23.058Z,99367.00
2022-09-17T01:56:33.810Z,99369.00
2022-09-17T01:56:44.589Z,99367.00
2022-09-17T01:56:55.358Z,99368.00
2022-09-17T01:57:07.068Z,99367.00
2022-09-17T01:57:17.859Z,99366.00
2022-09-17T01:57:30.119Z,99369.00
2022-09-17T01:57:41.898Z,99371.00
2022-09-17T01:57:54.159Z,99369.00
2022-09-17T01:58:05.890Z,99369.00
2022-09-17T01:58:17.619Z,99365.00
2022-09-17T01:58:29.836Z,99366.00
2022-09-17T01:58:40.647Z,99366.00
2022-09-17T01:58:51.430Z,99375.00
2022-09-17T01:59:03.152Z,99368.00
2022-09-17T01:59:13.911Z,99370.00
2022-09-17T01:59:25.639Z,99369.00
2022-09-17T01:59:37.859Z,99366.00
2022-09-17T01:59:50.069Z,99369.00
2022-09-17T02:00:01.811Z,99371.00
2022-09-17T02:00:13.570Z,99365.00
2022-09-17T02:00:24.388Z,99366.00
2022-09-17T02:00:35.227Z,99367.00
2022-09-17T02:00:46.074Z,99368.00
2022-09-17T02:00:57.821Z,99368.00
2022-09-17T02:01:09.616Z,99368.00
2022-09-17T02:01:21.369Z,99365.00
2022-09-17T02:01:32.150Z,99364.00
2022-09-17T02:01:42.922Z,99364.00
2022-09-17T02:01:53.723Z,99366.00
2022-09-17T02:02:05.564Z,99368.00
2022-09-17T02:02:17.307Z,99368.00
2022-09-17T02:02:28.215Z,99369.00
2022-09-17T02:02:39.011Z,99371.00
2022-09-17T02:02:50.810Z,99372.00
2022-09-17T02:03:01.610Z,99369.00
2022-09-17T02:03:13.345Z,99367.00
2022-09-17T02:03:25.802Z,99367.00
2022-09-17T02:03:36.598Z,99363.00
2022-09-17T02:03:48.424Z,99365.00
2022-09-17T02:04:00.151Z,99367.00
2022-09-17T02:04:11.882Z,99366.00
2022-09-17T02:04:24.360Z,99369.00
2022-09-17T02:04:35.109Z,99364.00
2022-09-17T02:04:46.831Z,99364.00
2022-09-17T02:04:58.563Z,99366.00
2022-09-17T02:05:09.349Z,99364.00
2022-09-17T02:05:21.032Z,99367.00
2022-09-17T02:05:31.793Z,99367.00
2022-09-17T02:05:42.563Z,99365.00
2022-09-17T02:05:53.385Z,99370.00
2022-09-17T02:06:04.174Z,99367.00
2022-09-17T02:06:14.951Z,99368.00
2022-09-17T02:06:26.703Z,99366.00
2022-09-17T02:06:37.452Z,99363.00
2022-09-17T02:06:49.172Z,99365.00
2022-09-17T02:07:00.922Z,99368.00
2022-09-17T02:07:12.671Z,99371.00
2022-09-17T02:07:25.122Z,99367.00
2022-09-17T02:07:35.882Z,99366.00
2022-09-17T02:07:46.642Z,99367.00
2022-09-17T02:07:58.382Z,99367.00
2022-09-17T02:08:10.102Z,99365.00
2022-09-17T02:08:21.823Z,99365.00
2022-09-17T02:08:32.602Z,99364.00
2022-09-17T02:08:44.362Z,99368.00
2022-09-17T02:08:56.072Z,99367.00
2022-09-17T02:09:06.832Z,99363.00
2022-09-17T02:09:17.593Z,99363.00
2022-09-17T02:09:28.373Z,99367.00
2022-09-17T02:09:40.088Z,99364.00
2022-09-17T02:09:52.563Z,99366.00
2022-09-17T02:10:03.353Z,99370.00
2022-09-17T02:10:15.813Z,99368.00
2022-09-17T02:10:26.633Z,99367.00
2022-09-17T02:10:37.403Z,99362.00
2022-09-17T02:10:49.124Z,99361.00
2022-09-17T02:11:00.778Z,99360.00
2022-09-17T02:11:12.555Z,99361.00
2022-09-17T02:11:23.447Z,99365.00
2022-09-17T02:11:35.177Z,99365.00
2022-09-17T02:11:46.905Z,99365.00
2022-09-17T02:11:57.673Z,99361.00
2022-09-17T02:12:08.445Z,99362.00
2022-09-17T02:12:20.175Z,99364.00
2022-09-17T02:12:31.904Z,99363.00
2022-09-17T02:12:42.666Z,99366.00
2022-09-17T02:12:54.374Z,99367.00
2022-09-17T02:13:06.113Z,99363.00
2022-09-17T02:13:16.903Z,99363.00
2022-09-17T02:13:29.175Z,99365.00
2022-09-17T02:13:40.016Z,99368.00
2022-09-17T02:13:51.774Z,99364.00
2022-09-17T02:14:02.505Z,99366.00